createdAt,value
2022-10-04T00:01:32.779Z,101335.75
2022-10-04T00:04:11.525Z,101332.84
2022-10-04T00:06:48.404Z,101335.75
2022-10-04T00:09:19.994Z,101323.13
2022-10-04T00:11:48.249Z,101339.13
2022-10-04T00:14:17.433Z,101337.28
2022-10-04T00:16:44.328Z,101348.53
2022-10-04T00:19:19.712Z,101337.91
2022-10-04T00:21:52.635Z,101327.78
2022-10-04T00:24:26.538Z,101322.56
2022-10-04T00:27:19.175Z,101325.69
2022-10-04T00:30:01.821Z,101343.41
2022-10-04T00:32:40.492Z,101327.81
2022-10-04T00:35:25.692Z,101328.41
2022-10-04T00:38:01.001Z,101327.88
2022-10-04T00:40:36.105Z,101323.72
2022-10-04T00:43:14.029Z,101326.84
2022-10-04T00:45:50.136Z,101319.78
2022-10-04T00:48:47.965Z,101315.19
2022-10-04T00:51:48.799Z,101309.34
2022-10-04T00:54:31.331Z,101313.00
2022-10-04T00:57:07.510Z,101313.16
2022-10-04T00:59:37.246Z,101309.84
2022-10-04T01:02:14.569Z,101302.34
2022-10-04T01:04:53.606Z,101299.50
2022-10-04T01:07:29.054Z,101302.22
2022-10-04T01:10:00.918Z,101293.94
2022-10-04T01:12:44.254Z,101296.38
2022-10-04T01:15:43.194Z,101292.19
2022-10-04T01:18:14.606Z,101284.63
2022-10-04T01:20:52.562Z,101290.78
2022-10-04T01:23:41.956Z,101290.78
2022-10-04T01:26:26.512Z,101281.22
2022-10-04T01:28:54.132Z,101290.41
2022-10-04T01:31:21.360Z,101277.97
2022-10-04T01:33:48.096Z,101279.84
2022-10-04T01:36:14.505Z,101275.09
2022-10-04T01:38:41.035Z,101272.97
2022-10-04T01:41:09.124Z,101259.69
2022-10-04T01:43:39.879Z,101266.75
2022-10-04T01:46:22.985Z,101264.66
2022-10-04T01:48:49.591Z,101248.72
2022-10-04T01:51:24.619Z,101257.81
2022-10-04T01:54:12.943Z,101250.75
2022-10-04T01:56:46.907Z,101249.56
2022-10-04T01:59:23.859Z,101250.16
2022-10-04T02:01:50.240Z,101244.81
2022-10-04T02:04:23.290Z,101261.19
2022-10-04T02:06:54.260Z,101254.78
2022-10-04T02:09:33.925Z,101256.81
2022-10-04T02:12:01.331Z,101252.31
2022-10-04T02:14:33.252Z,101250.19
2022-10-04T02:17:03.227Z,101248.53
2022-10-04T02:19:36.156Z,101264.31
2022-10-04T02:22:04.517Z,101251.47
2022-10-04T02:24:35.443Z,101254.56
2022-10-04T02:27:01.987Z,101249.78
2022-10-04T02:29:28.552Z,101237.97
2022-10-04T02:32:13.556Z,101239.63
2022-10-04T02:34:40.843Z,101240.44
2022-10-04T02:37:08.959Z,101229.66
2022-10-04T02:39:47.569Z,101226.09
2022-10-04T02:42:37.692Z,101227.38
2022-10-04T02:45:21.129Z,101226.50
2022-10-04T02:47:53.279Z,101234.41
2022-10-04T02:50:24.181Z,101224.44
2022-10-04T02:52:58.631Z,101229.84
2022-10-04T02:55:31.177Z,101226.91
2022-10-04T02:57:58.825Z,101224.88
2022-10-04T03:00:29.803Z,101221.16
2022-10-04T03:03:34.700Z,101216.72
2022-10-04T03:06:18.484Z,101219.41
2022-10-04T03:08:49.633Z,101213.66
2022-10-04T03:11:18.916Z,101202.47
2022-10-04T03:13:49.270Z,101202.88
2022-10-04T03:16:16.586Z,101208.69
2022-10-04T03:18:44.517Z,101208.06
2022-10-04T03:21:14.841Z,101214.91
2022-10-04T03:23:42.608Z,101206.63
2022-10-04T03:26:38.623Z,101207.63
2022-10-04T03:29:11.391Z,101204.97
2022-10-04T03:31:48.154Z,101210.78
2022-10-04T03:34:22.077Z,101204.13
2022-10-04T03:36:50.746Z,101210.19
2022-10-04T03:39:40.606Z,101211.13
2022-10-04T03:42:13.398Z,101207.66
2022-10-04T03:44:42.159Z,101205.81
2022-10-04T03:47:33.405Z,101206.00
2022-10-04T03:50:05.158Z,101204.13
2022-10-04T03:52:34.946Z,101206.00
2022-10-04T03:55:05.907Z,101207.03
2022-10-04T03:57:33.030Z,101192.97
2022-10-04T04:00:01.632Z,101199.97
2022-10-04T04:02:50.422Z,101201.56
2022-10-04T04:05:25.736Z,101187.53
2022-10-04T04:08:12.280Z,101191.22
2022-10-04T04:10:43.530Z,101190.00
2022-10-04T04:13:31.866Z,101179.53
2022-10-04T04:16:02.222Z,101184.97
2022-10-04T04:18:35.780Z,101181.63
2022-10-04T04:21:04.958Z,101188.25
2022-10-04T04:23:37.916Z,101182.75
2022-10-04T04:26:23.638Z,101183.84
2022-10-04T04:29:24.355Z,101182.47
2022-10-04T04:32:04.921Z,101185.72
2022-10-04T04:34:35.151Z,101176.13
2022-10-04T04:37:04.093Z,101178.53
2022-10-04T04:39:37.027Z,101176.63
2022-10-04T04:42:11.851Z,101175.44
2022-10-04T04:45:00.863Z,101173.13
2022-10-04T04:47:34.619Z,101169.06
2022-10-04T04:50:08.554Z,101171.22
2022-10-04T04:52:36.945Z,101174.16
2022-10-04T04:55:04.471Z,101183.69
2022-10-04T04:57:33.414Z,101176.78
2022-10-04T05:00:01.818Z,101172.16
2022-10-04T05:02:36.588Z,101175.34
2022-10-04T05:05:24.312Z,101178.13
2022-10-04T05:08:23.319Z,101173.91
2022-10-04T05:11:08.297Z,101174.19
2022-10-04T05:13:47.436Z,101172.53
2022-10-04T05:16:18.503Z,101171.63
2022-10-04T05:18:46.048Z,101176.56
2022-10-04T05:21:20.420Z,101183.47
2022-10-04T05:23:47.579Z,101197.28
2022-10-04T05:26:14.658Z,101187.78
2022-10-04T05:28:41.565Z,101190.75
2022-10-04T05:31:49.810Z,101188.69
2022-10-04T05:34:40.432Z,101189.03
2022-10-04T05:37:25.440Z,101199.53
2022-10-04T05:40:02.987Z,101199.44
2022-10-04T05:42:45.371Z,101201.19
2022-10-04T05:45:17.598Z,101197.06
2022-10-04T05:47:47.431Z,101198.13
2022-10-04T05:50:35.197Z,101195.28
2022-10-04T05:53:33.221Z,101194.00
2022-10-04T05:56:12.625Z,101194.34
2022-10-04T05:59:08.190Z,101191.41
2022-10-04T06:01:47.094Z,101189.13
2022-10-04T06:04:25.141Z,101186.63
2022-10-04T06:07:00.652Z,101183.81
2022-10-04T06:09:57.889Z,101183.28
2022-10-04T06:12:44.610Z,101194.13
2022-10-04T06:15:31.636Z,101176.75
2022-10-04T06:18:07.691Z,101187.75
2022-10-04T06:20:50.945Z,101188.22
2022-10-04T06:23:18.888Z,101182.19
2022-10-04T06:25:50.009Z,101186.41
2022-10-04T06:28:30.377Z,101188.28
2022-10-04T06:31:21.792Z,101196.47
2022-10-04T06:34:24.869Z,101194.03
2022-10-04T06:37:13.701Z,101204.56
2022-10-04T06:40:01.778Z,101215.38
2022-10-04T06:43:02.144Z,101217.91
2022-10-04T06:45:37.793Z,101221.50
2022-10-04T06:48:16.275Z,101228.16
2022-10-04T06:50:55.355Z,101228.41
2022-10-04T06:53:29.852Z,101218.84
2022-10-04T06:56:08.509Z,101218.88
2022-10-04T06:58:56.392Z,101227.81
2022-10-04T07:01:30.448Z,101223.41
2022-10-04T07:04:45.037Z,101217.13
2022-10-04T07:07:38.088Z,101220.28
2022-10-04T07:10:23.730Z,101229.59
2022-10-04T07:13:10.863Z,101235.47
2022-10-04T07:15:49.157Z,101221.34
2022-10-04T07:18:22.495Z,101223.84
2022-10-04T07:20:57.504Z,101216.81
2022-10-04T07:23:32.844Z,101201.19
2022-10-04T07:26:06.704Z,101214.69
2022-10-04T07:28:59.808Z,101207.22
2022-10-04T07:31:30.172Z,101206.59
2022-10-04T07:34:03.884Z,101207.00
2022-10-04T07:36:41.896Z,101202.81
2022-10-04T07:39:23.551Z,101204.25
2022-10-04T07:41:54.711Z,101209.88
2022-10-04T07:44:35.975Z,101208.16
2022-10-04T07:47:22.444Z,101204.63
2022-10-04T07:49:53.909Z,101200.72
2022-10-04T07:52:26.559Z,101203.94
2022-10-04T07:55:39.971Z,101204.44
2022-10-04T07:58:24.148Z,101215.25
2022-10-04T08:01:28.488Z,101222.16
2022-10-04T08:04:14.594Z,101216.06
2022-10-04T08:06:44.241Z,101217.66
2022-10-04T08:09:35.232Z,101217.88
2022-10-04T08:12:23.336Z,101223.69
2022-10-04T08:15:15.788Z,101218.66
2022-10-04T08:18:19.756Z,101210.59
2022-10-04T08:21:01.989Z,101209.94
2022-10-04T08:23:53.090Z,101207.22
2022-10-04T08:26:58.528Z,101214.34
2022-10-04T08:29:47.389Z,101218.09
2022-10-04T08:32:35.791Z,101210.03
2022-10-04T08:35:28.054Z,101213.78
2022-10-04T08:38:23.190Z,101210.44
2022-10-04T08:41:10.870Z,101213.72
2022-10-04T08:43:43.414Z,101214.47
2022-10-04T08:46:26.168Z,101207.88
2022-10-04T08:49:30.381Z,101201.66
2022-10-04T08:52:10.697Z,101208.38
2022-10-04T08:55:14.313Z,101209.00
2022-10-04T08:58:14.120Z,101209.59
2022-10-04T09:00:58.865Z,101196.97
2022-10-04T09:03:47.174Z,101200.63
2022-10-04T09:06:41.349Z,101191.28
2022-10-04T09:09:46.513Z,101199.84
2022-10-04T09:12:20.238Z,101197.94
2022-10-04T09:15:32.705Z,101193.41
2022-10-04T09:18:14.329Z,101201.38
2022-10-04T09:21:01.275Z,101195.63
2022-10-04T09:24:03.578Z,101197.19
2022-10-04T09:26:47.573Z,101193.88
2022-10-04T09:29:41.311Z,101195.66
2022-10-04T09:32:22.948Z,101193.03
2022-10-04T09:35:12.256Z,101197.84
2022-10-04T09:38:02.928Z,101200.63
2022-10-04T09:41:08.563Z,101194.31
2022-10-04T09:44:05.411Z,101194.19
2022-10-04T09:46:48.978Z,101186.59
2022-10-04T09:49:50.606Z,101190.34
2022-10-04T09:52:47.737Z,101186.72
2022-10-04T09:55:58.825Z,101188.81
2022-10-04T09:58:34.032Z,101180.63
2022-10-04T10:01:09.752Z,101189.78
2022-10-04T10:04:09.952Z,101185.66
2022-10-04T10:06:49.909Z,101184.63
2022-10-04T10:09:43.592Z,101174.44
2022-10-04T10:12:39.897Z,101168.56
2022-10-04T10:15:23.126Z,101161.56
2022-10-04T10:18:11.720Z,101163.28
2022-10-04T10:21:08.135Z,101160.09
2022-10-04T10:23:56.133Z,101153.34
2022-10-04T10:27:02.336Z,101155.97
2022-10-04T10:29:45.289Z,101155.41
2022-10-04T10:32:44.890Z,101150.06
2022-10-04T10:35:49.179Z,101146.91
2022-10-04T10:38:40.388Z,101139.84
2022-10-04T10:41:46.625Z,101144.56
2022-10-04T10:44:29.718Z,101136.13
2022-10-04T10:47:03.270Z,101139.41
2022-10-04T10:49:44.334Z,101138.94
2022-10-04T10:52:43.686Z,101137.31
2022-10-04T10:55:22.689Z,101131.28
2022-10-04T10:58:17.249Z,101143.31
2022-10-04T11:01:06.973Z,101133.00
2022-10-04T11:03:54.001Z,101131.38
2022-10-04T11:06:39.436Z,101129.75
2022-10-04T11:09:24.410Z,101128.66
2022-10-04T11:12:15.522Z,101124.88
2022-10-04T11:15:16.246Z,101123.81
2022-10-04T11:18:08.498Z,101123.28
2022-10-04T11:21:11.251Z,101109.38
2022-10-04T11:24:14.864Z,101109.66
2022-10-04T11:26:46.737Z,101108.00
2022-10-04T11:29:25.105Z,101097.66
2022-10-04T11:32:00.594Z,101102.06
2022-10-04T11:34:46.361Z,101110.00
2022-10-04T11:37:27.912Z,101102.63
2022-10-04T11:40:13.183Z,101093.88
2022-10-04T11:42:56.268Z,101091.13
2022-10-04T11:45:55.848Z,101077.47
2022-10-04T11:48:56.045Z,101074.47
2022-10-04T11:51:37.758Z,101075.28
2022-10-04T11:54:41.744Z,101094.44
2022-10-04T11:57:32.169Z,101079.13
2022-10-04T12:00:11.198Z,101073.09
2022-10-04T12:02:50.235Z,101088.94
2022-10-04T12:05:35.079Z,101078.84
2022-10-04T12:08:52.399Z,101069.53
2022-10-04T12:11:47.851Z,101070.63
2022-10-04T12:14:40.804Z,101072.53
2022-10-04T12:17:29.931Z,101074.97
2022-10-04T12:20:36.035Z,101059.94
2022-10-04T12:23:11.454Z,101055.56
2022-10-04T12:26:08.222Z,101050.56
2022-10-04T12:28:52.976Z,101043.44
2022-10-04T12:31:31.744Z,101035.25
2022-10-04T12:34:29.429Z,101030.31
2022-10-04T12:37:17.068Z,101017.13
2022-10-04T12:40:12.056Z,101018.75
2022-10-04T12:43:10.155Z,101014.38
2022-10-04T12:45:48.511Z,101022.28
2022-10-04T12:48:21.002Z,101019.56
2022-10-04T12:50:47.405Z,101003.38
2022-10-04T12:53:20.268Z,100994.09
2022-10-04T12:56:20.815Z,100993.19
2022-10-04T12:59:02.578Z,100986.38
2022-10-04T13:02:05.640Z,100985.53
2022-10-04T13:04:39.674Z,100984.75
2022-10-04T13:07:25.752Z,100979.81
2022-10-04T13:10:22.450Z,100981.19
2022-10-04T13:13:22.641Z,100988.50
2022-10-04T13:19:17.871Z,100994.28
2022-10-04T13:22:10.256Z,100997.56
2022-10-04T13:25:07.866Z,100980.25
2022-10-04T13:28:02.456Z,100966.53
2022-10-04T13:30:35.056Z,100958.63
2022-10-04T13:33:35.673Z,100961.88
2022-10-04T13:36:29.387Z,100961.03
2022-10-04T13:38:58.801Z,100968.75
2022-10-04T13:41:25.394Z,100961.09
2022-10-04T13:44:06.341Z,100962.13
2022-10-04T13:47:10.917Z,100962.13
2022-10-04T13:50:02.516Z,100955.91
2022-10-04T13:53:13.273Z,100954.22
2022-10-04T13:56:10.518Z,100946.00
2022-10-04T13:58:51.918Z,100959.09
2022-10-04T14:01:31.314Z,100952.22
2022-10-04T14:04:42.583Z,100956.22
2022-10-04T14:07:34.487Z,100948.81
2022-10-04T14:10:22.411Z,100947.78
2022-10-04T14:12:48.806Z,100958.50
2022-10-04T14:15:26.926Z,100935.19
2022-10-04T14:18:32.085Z,100940.56
2022-10-04T14:21:18.209Z,100951.84
2022-10-04T14:24:08.827Z,100936.19
2022-10-04T14:26:44.565Z,100933.72
2022-10-04T14:29:46.272Z,100936.94
2022-10-04T14:32:30.677Z,100928.72
2022-10-04T14:35:20.374Z,100924.94
2022-10-04T14:38:08.432Z,100916.19
2022-10-04T14:40:56.817Z,100919.72
2022-10-04T14:43:53.756Z,100916.50
2022-10-04T14:46:44.127Z,100905.88
2022-10-04T14:49:38.335Z,100897.06
2022-10-04T14:52:29.143Z,100905.41
2022-10-04T14:55:10.483Z,100903.19
2022-10-04T14:58:13.997Z,100884.00
2022-10-04T15:01:01.846Z,100892.50
2022-10-04T15:03:48.354Z,100899.38
2022-10-04T15:06:22.159Z,100903.31
2022-10-04T15:09:18.900Z,100892.88
2022-10-04T15:12:32.599Z,100887.13
2022-10-04T15:15:14.936Z,100895.97
2022-10-04T15:17:59.751Z,100892.94
2022-10-04T15:20:33.829Z,100897.16
2022-10-04T15:23:29.365Z,100902.88
2022-10-04T15:26:45.274Z,100903.66
2022-10-04T15:29:23.855Z,100900.78
2022-10-04T15:32:07.317Z,100891.56
2022-10-04T15:34:58.002Z,100894.25
2022-10-04T15:37:44.233Z,100897.03
2022-10-04T15:40:24.156Z,100889.94
2022-10-04T15:43:50.181Z,100889.88
2022-10-04T15:46:28.966Z,100890.53
2022-10-04T15:49:13.033Z,100896.63
2022-10-04T15:51:48.690Z,100890.13
2022-10-04T15:54:34.096Z,100878.59
2022-10-04T15:57:19.454Z,100866.16
2022-10-04T15:59:55.622Z,100868.03
2022-10-04T16:02:40.426Z,100864.47
2022-10-04T16:05:22.953Z,100863.97
2022-10-04T16:08:03.800Z,100859.59
2022-10-04T16:11:09.169Z,100848.91
2022-10-04T16:13:57.043Z,100860.50
2022-10-04T16:16:29.336Z,100855.06
2022-10-04T16:19:19.324Z,100867.88
2022-10-04T16:22:11.176Z,100881.56
2022-10-04T16:24:57.706Z,100890.06
2022-10-04T16:27:57.082Z,100896.69
2022-10-04T16:31:08.940Z,100889.88
2022-10-04T16:33:43.118Z,100891.84
2022-10-04T16:36:17.309Z,100892.44
2022-10-04T16:39:06.915Z,100893.81
2022-10-04T16:41:42.245Z,100885.09
2022-10-04T16:44:23.789Z,100887.84
2022-10-04T16:46:52.266Z,100884.56
2022-10-04T16:49:41.198Z,100875.81
2022-10-04T16:52:19.855Z,100876.38
2022-10-04T16:54:57.961Z,100870.13
2022-10-04T16:57:27.818Z,100866.31
2022-10-04T16:59:57.263Z,100873.69
2022-10-04T17:02:45.925Z,100876.41
2022-10-04T17:06:11.787Z,100876.66
2022-10-04T17:09:09.143Z,100872.59
2022-10-04T17:11:41.239Z,100870.34
2022-10-04T17:14:51.328Z,100884.56
2022-10-04T17:17:32.133Z,100880.75
2022-10-04T17:20:29.651Z,100874.19
2022-10-04T17:23:13.722Z,100874.97
2022-10-04T17:26:17.870Z,100881.78
2022-10-04T17:28:57.506Z,100869.47
2022-10-04T17:31:37.560Z,100872.72
2022-10-04T17:34:30.303Z,100869.19
2022-10-04T17:37:11.210Z,100872.97
2022-10-04T17:39:48.313Z,100877.06
2022-10-04T17:42:41.949Z,100881.16
2022-10-04T17:45:46.292Z,100880.59
2022-10-04T17:48:35.842Z,100881.84
2022-10-04T17:51:27.451Z,100891.91
2022-10-04T17:54:19.554Z,100886.16
2022-10-04T17:56:52.797Z,100880.44
2022-10-04T17:59:30.718Z,100879.84
2022-10-04T18:02:11.044Z,100885.03
2022-10-04T18:04:48.790Z,100874.63
2022-10-04T18:07:18.701Z,100875.97
2022-10-04T18:09:52.545Z,100869.91
2022-10-04T18:12:30.245Z,100883.53
2022-10-04T18:15:25.920Z,100876.75
2022-10-04T18:18:06.748Z,100877.47
2022-10-04T18:20:59.858Z,100881.88
2022-10-04T18:23:29.122Z,100871.44
2022-10-04T18:26:05.084Z,100875.22
2022-10-04T18:28:34.761Z,100872.69
2022-10-04T18:31:14.274Z,100870.06
2022-10-04T18:33:40.697Z,100861.72
2022-10-04T18:36:31.854Z,100871.66
2022-10-04T18:39:04.173Z,100877.03
2022-10-04T18:41:52.027Z,100872.28
2022-10-04T18:44:27.387Z,100866.31
2022-10-04T18:46:57.728Z,100877.44
2022-10-04T18:49:28.500Z,100885.03
2022-10-04T18:52:22.748Z,100883.47
2022-10-04T18:55:20.942Z,100884.81
2022-10-04T18:58:23.910Z,100886.63
2022-10-04T19:01:24.318Z,100898.09
2022-10-04T19:03:59.688Z,100896.66
2022-10-04T19:06:38.765Z,100898.78
2022-10-04T19:09:26.764Z,100895.78
2022-10-04T19:12:00.217Z,100891.91
2022-10-04T19:14:47.588Z,100897.63
2022-10-04T19:17:45.320Z,100903.66
2022-10-04T19:20:23.307Z,100904.38
2022-10-04T19:23:07.498Z,100900.78
2022-10-04T19:25:41.019Z,100897.97
2022-10-04T19:28:18.378Z,100895.53
2022-10-04T19:30:48.409Z,100895.75
2022-10-04T19:33:20.573Z,100894.09
2022-10-04T19:36:09.911Z,100887.53
2022-10-04T19:39:02.799Z,100882.09
2022-10-04T19:41:37.740Z,100876.59
2022-10-04T19:44:25.544Z,100875.53
2022-10-04T19:47:01.200Z,100866.72
2022-10-04T19:49:33.611Z,100869.34
2022-10-04T19:52:27.403Z,100867.28
2022-10-04T19:55:18.859Z,100882.63
2022-10-04T19:57:51.344Z,100880.63
2022-10-04T20:00:20.287Z,100899.56
2022-10-04T20:02:48.882Z,100909.03
2022-10-04T20:05:24.721Z,100918.03
2022-10-04T20:07:56.374Z,100921.25
2022-10-04T20:10:30.531Z,100929.97
2022-10-04T20:13:21.372Z,100936.59
2022-10-04T20:15:56.239Z,100945.13
2022-10-04T20:18:34.610Z,100933.22
2022-10-04T20:21:01.459Z,100926.78
2022-10-04T20:23:40.310Z,100915.75
2022-10-04T20:26:08.672Z,100911.53
2022-10-04T20:28:41.851Z,100895.41
2022-10-04T20:31:29.393Z,100893.75
2022-10-04T21:47:41.864Z,100874.78
2022-10-04T21:50:08.431Z,100873.59
2022-10-04T21:52:34.992Z,100868.22
2022-10-04T21:55:01.367Z,100845.28
2022-10-04T21:57:30.741Z,100849.72
2022-10-04T21:59:59.720Z,100834.19
2022-10-04T22:02:26.282Z,100827.34
2022-10-04T22:04:52.672Z,100828.38
2022-10-04T22:07:19.131Z,100831.72
2022-10-04T22:09:45.551Z,100837.66
2022-10-04T22:12:12.055Z,100833.28
2022-10-04T22:14:38.464Z,100828.91
2022-10-04T22:17:04.938Z,100816.94
2022-10-04T22:19:31.351Z,100828.31
2022-10-04T22:21:57.892Z,100817.81
2022-10-04T22:24:24.236Z,100809.06
2022-10-04T22:26:50.831Z,100816.25
2022-10-04T22:29:17.933Z,100809.91
2022-10-04T22:31:51.441Z,100812.81
2022-10-04T22:34:20.505Z,100818.06
2022-10-04T22:36:48.987Z,100819.63
2022-10-04T22:39:18.005Z,100815.03
2022-10-04T22:41:47.296Z,100827.78
2022-10-04T22:44:19.135Z,100815.53
2022-10-04T22:46:50.487Z,100817.75
2022-10-04T22:49:20.381Z,100829.34
2022-10-04T22:51:49.272Z,100836.16
2022-10-04T22:54:17.771Z,100837.47
2022-10-04T22:56:44.707Z,100832.56
2022-10-04T22:59:13.841Z,100846.66
2022-10-04T23:01:40.329Z,100843.41
2022-10-04T23:04:16.596Z,100846.84
2022-10-04T23:06:44.168Z,100843.50
2022-10-04T23:09:10.861Z,100837.47
2022-10-04T23:11:37.318Z,100847.00
2022-10-04T23:14:03.976Z,100856.78
2022-10-04T23:16:30.505Z,100865.75
2022-10-04T23:19:20.481Z,100873.13
2022-10-04T23:21:49.837Z,100875.91
2022-10-04T23:24:19.925Z,100888.34
2022-10-04T23:26:50.283Z,100872.91
2022-10-04T23:29:21.683Z,100882.66
2022-10-04T23:31:49.813Z,100882.34
2022-10-04T23:34:35.703Z,100873.47
2022-10-04T23:37:03.297Z,100868.53
2022-10-04T23:39:34.809Z,100860.50
2022-10-04T23:42:05.345Z,100861.22
2022-10-04T23:44:37.261Z,100843.38
2022-10-04T23:47:11.346Z,100838.78
2022-10-04T23:49:37.837Z,100842.47
2022-10-04T23:52:04.418Z,100844.38
2022-10-04T23:54:30.805Z,100844.34
2022-10-04T23:56:57.205Z,100849.56
2022-10-04T23:59:25.855Z,100847.34
